createdAt,value
2023-05-25T00:00:19.248Z,101253.50
2023-05-25T00:02:49.202Z,101247.56
2023-05-25T00:05:18.586Z,101249.44
2023-05-25T00:07:45.775Z,101244.56
2023-05-25T00:10:13.763Z,101257.47
2023-05-25T00:12:40.671Z,101256.63
2023-05-25T00:15:09.039Z,101247.19
2023-05-25T00:17:37.453Z,101255.22
2023-05-25T00:20:07.873Z,101243.34
2023-05-25T00:22:36.223Z,101256.25
2023-05-25T00:25:04.240Z,101254.59
2023-05-25T00:27:31.447Z,101254.03
2023-05-25T00:29:59.152Z,101254.56
2023-05-25T00:32:27.469Z,101248.06
2023-05-25T00:34:55.517Z,101255.00
2023-05-25T00:37:25.749Z,101253.06
2023-05-25T00:39:52.596Z,101250.06
2023-05-25T00:42:19.761Z,101257.56
2023-05-25T00:44:48.333Z,101252.94
2023-05-25T00:47:17.954Z,101254.28
2023-05-25T00:49:47.530Z,101254.75
2023-05-25T00:52:16.949Z,101254.72
2023-05-25T00:54:51.115Z,101258.38
2023-05-25T00:57:22.382Z,101254.56
2023-05-25T00:59:52.270Z,101257.19
2023-05-25T01:02:20.929Z,101261.19
2023-05-25T01:08:03.286Z,101258.06
2023-05-25T01:10:33.645Z,101267.72
2023-05-25T01:13:02.244Z,101265.56
2023-05-25T01:15:31.049Z,101267.59
2023-05-25T01:17:59.684Z,101266.53
2023-05-25T01:20:30.641Z,101267.59
2023-05-25T01:23:11.976Z,101272.09
2023-05-25T01:25:48.250Z,101262.88
2023-05-25T01:28:21.960Z,101264.97
2023-05-25T01:30:50.942Z,101264.31
2023-05-25T01:33:19.339Z,101272.03
2023-05-25T01:35:47.870Z,101277.19
2023-05-25T01:38:14.879Z,101272.03
2023-05-25T01:40:41.937Z,101285.47
2023-05-25T01:43:08.734Z,101280.59
2023-05-25T01:45:36.186Z,101284.38
2023-05-25T01:48:21.250Z,101286.72
2023-05-25T01:50:57.519Z,101279.72
2023-05-25T01:53:30.483Z,101276.72
2023-05-25T01:56:02.254Z,101277.19
2023-05-25T01:58:42.533Z,101275.56
2023-05-25T02:01:14.997Z,101277.69
2023-05-25T02:03:42.764Z,101278.16
2023-05-25T02:06:10.295Z,101280.28
2023-05-25T02:08:37.101Z,101281.59
2023-05-25T02:11:05.096Z,101277.53
2023-05-25T02:13:32.020Z,101276.38
2023-05-25T02:15:58.998Z,101282.16
2023-05-25T02:18:26.635Z,101277.16
2023-05-25T02:20:54.336Z,101275.28
2023-05-25T02:23:22.363Z,101275.06
2023-05-25T02:25:49.135Z,101270.19
2023-05-25T02:28:16.285Z,101269.84
2023-05-25T02:30:43.273Z,101268.69
2023-05-25T02:33:10.114Z,101275.84
2023-05-25T02:35:37.024Z,101278.28
2023-05-25T02:38:04.415Z,101272.13
2023-05-25T02:40:32.137Z,101276.34
2023-05-25T02:42:59.039Z,101272.00
2023-05-25T02:45:26.720Z,101278.44
2023-05-25T02:47:53.532Z,101275.75
2023-05-25T02:50:22.439Z,101285.09
2023-05-25T02:52:52.247Z,101277.28
2023-05-25T02:55:19.121Z,101276.78
2023-05-25T02:57:46.698Z,101280.06
2023-05-25T03:00:26.288Z,101282.16
2023-05-25T03:02:56.940Z,101276.78
2023-05-25T03:05:23.798Z,101282.16
2023-05-25T03:07:50.921Z,101282.16
2023-05-25T03:10:17.880Z,101282.66
2023-05-25T03:12:44.715Z,101285.56
2023-05-25T03:15:14.048Z,101286.06
2023-05-25T03:17:41.686Z,101291.66
2023-05-25T03:20:11.054Z,101287.81
2023-05-25T03:22:41.985Z,101279.34
2023-05-25T03:25:12.526Z,101291.13
2023-05-25T03:27:39.889Z,101280.66
2023-05-25T03:30:08.161Z,101280.16
2023-05-25T03:32:35.134Z,101278.06
2023-05-25T03:35:03.406Z,101286.09
2023-05-25T03:37:30.549Z,101288.56
2023-05-25T03:39:57.657Z,101292.03
2023-05-25T03:42:24.741Z,101294.16
2023-05-25T03:44:51.673Z,101305.38
2023-05-25T03:47:18.684Z,101298.94
2023-05-25T03:49:45.591Z,101301.97
2023-05-25T03:52:14.576Z,101305.44
2023-05-25T03:54:41.802Z,101313.50
2023-05-25T03:57:09.297Z,101319.44
2023-05-25T03:59:38.530Z,101328.63
2023-05-25T04:02:05.505Z,101322.59
2023-05-25T04:04:32.603Z,101333.31
2023-05-25T04:06:59.473Z,101327.94
2023-05-25T04:09:26.238Z,101334.97
2023-05-25T04:11:53.385Z,101333.66
2023-05-25T04:14:21.760Z,101338.66
2023-05-25T04:16:49.850Z,101343.00
2023-05-25T04:19:16.906Z,101341.34
2023-05-25T04:21:43.819Z,101344.63
2023-05-25T04:24:11.497Z,101349.59
2023-05-25T04:26:39.480Z,101348.66
2023-05-25T04:29:09.928Z,101353.06
2023-05-25T04:32:09.489Z,101350.97
2023-05-25T04:34:54.981Z,101353.56
2023-05-25T04:37:27.573Z,101362.19
2023-05-25T04:39:57.762Z,101355.97
2023-05-25T04:42:24.846Z,101359.97
2023-05-25T04:44:55.846Z,101358.00
2023-05-25T04:47:26.088Z,101358.50
2023-05-25T04:49:54.268Z,101358.22
2023-05-25T04:52:21.048Z,101361.50
2023-05-25T04:54:48.257Z,101353.78
2023-05-25T04:57:16.291Z,101361.69
2023-05-25T04:59:44.581Z,101362.38
2023-05-25T05:02:11.888Z,101361.16
2023-05-25T05:04:40.586Z,101369.91
2023-05-25T05:07:09.270Z,101357.53
2023-05-25T05:09:36.127Z,101355.41
2023-05-25T05:12:03.407Z,101363.91
2023-05-25T05:14:35.895Z,101365.63
2023-05-25T05:17:03.555Z,101369.44
2023-05-25T05:19:33.228Z,101372.72
2023-05-25T05:22:00.248Z,101374.66
2023-05-25T05:24:27.417Z,101368.03
2023-05-25T05:26:58.755Z,101376.06
2023-05-25T05:29:29.704Z,101371.00
2023-05-25T05:31:57.483Z,101362.25
2023-05-25T05:34:25.503Z,101363.94
2023-05-25T05:36:57.858Z,101360.84
2023-05-25T05:39:27.446Z,101360.25
2023-05-25T05:41:56.172Z,101358.47
2023-05-25T05:44:26.862Z,101360.75
2023-05-25T05:47:02.881Z,101363.56
2023-05-25T05:49:31.401Z,101360.97
2023-05-25T05:51:59.636Z,101369.59
2023-05-25T05:54:30.200Z,101364.84
2023-05-25T05:57:01.600Z,101366.06
2023-05-25T05:59:28.555Z,101361.31
2023-05-25T06:01:56.267Z,101365.75
2023-05-25T06:04:25.508Z,101369.66
2023-05-25T06:06:52.527Z,101372.50
2023-05-25T06:09:19.326Z,101370.69
2023-05-25T06:11:46.144Z,101382.78
2023-05-25T06:14:12.933Z,101384.13
2023-05-25T06:16:41.492Z,101379.34
2023-05-25T06:19:08.342Z,101378.38
2023-05-25T06:21:35.380Z,101391.06
2023-05-25T06:24:02.211Z,101397.09
2023-05-25T06:26:29.126Z,101390.69
2023-05-25T06:28:57.585Z,101384.53
2023-05-25T06:31:26.447Z,101389.94
2023-05-25T06:33:53.345Z,101391.63
2023-05-25T06:36:20.816Z,101400.84
2023-05-25T06:38:47.770Z,101392.00
2023-05-25T06:41:15.237Z,101400.13
2023-05-25T06:43:44.162Z,101402.56
2023-05-25T06:46:34.410Z,101403.06
2023-05-25T06:49:01.657Z,101405.22
2023-05-25T06:51:28.981Z,101408.25
2023-05-25T06:53:56.349Z,101403.03
2023-05-25T06:56:24.718Z,101409.97
2023-05-25T06:58:51.566Z,101409.78
2023-05-25T07:01:18.540Z,101401.81
2023-05-25T07:03:45.632Z,101404.28
2023-05-25T07:06:13.297Z,101398.13
2023-05-25T07:08:40.096Z,101404.34
2023-05-25T07:11:10.555Z,101409.72
2023-05-25T07:13:37.566Z,101402.19
2023-05-25T07:16:04.481Z,101410.59
2023-05-25T07:18:31.379Z,101403.91
2023-05-25T07:20:58.478Z,101398.91
2023-05-25T07:23:25.508Z,101398.72
2023-05-25T07:25:52.594Z,101393.91
2023-05-25T07:28:19.470Z,101392.31
2023-05-25T07:30:46.340Z,101387.72
2023-05-25T07:33:15.817Z,101388.44
2023-05-25T07:35:42.787Z,101395.25
2023-05-25T07:38:09.875Z,101388.06
2023-05-25T07:40:36.706Z,101390.13
2023-05-25T07:43:04.476Z,101400.50
2023-05-25T07:45:32.226Z,101403.41
2023-05-25T07:47:59.470Z,101396.38
2023-05-25T07:50:26.312Z,101398.56
2023-05-25T07:52:53.097Z,101408.19
2023-05-25T07:55:20.520Z,101403.44
2023-05-25T07:57:47.359Z,101404.53
2023-05-25T08:00:14.485Z,101406.44
2023-05-25T08:02:41.868Z,101403.44
2023-05-25T08:05:10.203Z,101393.03
2023-05-25T08:07:37.112Z,101392.41
2023-05-25T08:10:05.025Z,101398.91
2023-05-25T08:12:47.171Z,101390.00
2023-05-25T08:15:15.278Z,101382.81
2023-05-25T08:17:42.375Z,101373.31
2023-05-25T08:20:10.586Z,101374.47
2023-05-25T08:22:37.741Z,101369.66
2023-05-25T08:25:05.335Z,101371.44
2023-05-25T08:27:35.203Z,101367.06
2023-05-25T08:30:03.660Z,101371.72
2023-05-25T08:32:30.502Z,101374.97
2023-05-25T08:34:57.353Z,101373.94
2023-05-25T08:37:25.159Z,101364.69
2023-05-25T08:39:52.018Z,101362.13
2023-05-25T08:42:18.974Z,101356.47
2023-05-25T08:44:45.979Z,101356.88
2023-05-25T08:47:15.214Z,101357.31
2023-05-25T08:49:44.451Z,101360.56
2023-05-25T08:52:13.600Z,101366.03
2023-05-25T08:54:44.028Z,101362.03
2023-05-25T08:57:34.393Z,101356.78
2023-05-25T09:00:11.762Z,101358.88
2023-05-25T09:02:50.895Z,101350.59
2023-05-25T09:05:18.855Z,101352.28
2023-05-25T09:07:46.838Z,101353.50
2023-05-25T09:10:14.850Z,101343.63
2023-05-25T09:12:43.785Z,101349.78
2023-05-25T09:15:12.100Z,101342.94
2023-05-25T09:17:39.716Z,101340.78
2023-05-25T09:20:09.202Z,101340.66
2023-05-25T09:22:36.441Z,101329.28
2023-05-25T09:25:08.392Z,101329.13
2023-05-25T09:27:37.564Z,101313.19
2023-05-25T09:30:05.499Z,101314.75
2023-05-25T09:32:32.833Z,101328.69
2023-05-25T09:35:18.037Z,101325.44
2023-05-25T09:37:45.729Z,101323.00
2023-05-25T09:40:13.486Z,101326.69
2023-05-25T09:42:41.465Z,101317.44
2023-05-25T09:45:09.116Z,101325.88
2023-05-25T09:47:37.925Z,101324.44
2023-05-25T09:50:05.889Z,101324.53
2023-05-25T09:52:33.016Z,101316.38
2023-05-25T09:54:59.756Z,101318.50
2023-05-25T09:57:30.545Z,101317.16
2023-05-25T09:59:57.548Z,101325.50
2023-05-25T10:02:26.649Z,101315.13
2023-05-25T10:04:53.615Z,101337.25
2023-05-25T10:07:21.098Z,101322.41
2023-05-25T10:09:53.460Z,101331.94
2023-05-25T10:12:23.841Z,101332.06
2023-05-25T10:14:51.503Z,101324.25
2023-05-25T10:17:23.659Z,101336.47
2023-05-25T10:20:09.742Z,101319.59
2023-05-25T10:22:44.482Z,101315.09
2023-05-25T10:25:27.891Z,101318.94
2023-05-25T10:28:28.011Z,101317.97
2023-05-25T10:30:58.221Z,101316.34
2023-05-25T10:33:26.323Z,101322.03
2023-05-25T10:36:03.140Z,101312.63
2023-05-25T10:38:39.541Z,101307.22
2023-05-25T10:41:09.879Z,101302.41
2023-05-25T10:43:44.677Z,101303.31
2023-05-25T10:46:12.887Z,101309.47
2023-05-25T10:48:45.471Z,101316.16
2023-05-25T10:51:13.108Z,101311.63
2023-05-25T10:53:45.008Z,101301.97
2023-05-25T10:56:13.539Z,101296.69
2023-05-25T10:58:44.748Z,101301.72
2023-05-25T11:01:13.923Z,101297.44
2023-05-25T11:03:44.342Z,101305.44
2023-05-25T11:06:16.926Z,101302.41
2023-05-25T11:09:19.200Z,101297.06
2023-05-25T11:11:50.273Z,101304.13
2023-05-25T11:14:31.414Z,101308.91
2023-05-25T11:17:16.237Z,101287.16
2023-05-25T11:19:49.580Z,101289.66
2023-05-25T11:22:22.255Z,101288.84
2023-05-25T11:24:53.952Z,101290.69
2023-05-25T11:27:31.950Z,101284.03
2023-05-25T11:30:00.250Z,101285.53
2023-05-25T11:32:28.785Z,101277.56
2023-05-25T11:34:58.975Z,101279.81
2023-05-25T11:37:32.059Z,101274.56
2023-05-25T11:39:59.593Z,101282.81
2023-05-25T11:42:26.854Z,101277.03
2023-05-25T11:44:54.257Z,101285.38
2023-05-25T11:47:25.489Z,101274.03
2023-05-25T11:49:56.731Z,101269.59
2023-05-25T11:52:33.971Z,101265.09
2023-05-25T11:55:01.377Z,101253.41
2023-05-25T11:57:28.467Z,101260.03
2023-05-25T12:00:01.953Z,101258.53
2023-05-25T12:02:40.235Z,101256.38
2023-05-25T12:05:10.664Z,101256.13
2023-05-25T12:07:47.272Z,101259.13
2023-05-25T12:10:19.065Z,101264.06
2023-05-25T12:12:47.757Z,101264.09
2023-05-25T12:15:23.500Z,101277.53
2023-05-25T12:17:53.838Z,101268.53
2023-05-25T12:20:27.080Z,101276.50
2023-05-25T12:22:54.454Z,101269.75
2023-05-25T12:25:42.394Z,101269.34
2023-05-25T12:28:15.002Z,101277.47
2023-05-25T12:30:42.218Z,101262.72
2023-05-25T12:33:19.772Z,101265.09
2023-05-25T12:35:49.218Z,101269.56
2023-05-25T12:38:21.685Z,101267.06
2023-05-25T12:41:06.610Z,101264.38
2023-05-25T12:43:40.582Z,101275.97
2023-05-25T12:46:07.561Z,101264.41
2023-05-25T12:48:34.653Z,101267.91
2023-05-25T12:51:02.105Z,101265.56
2023-05-25T12:53:31.336Z,101265.47
2023-05-25T12:56:03.279Z,101269.41
2023-05-25T12:58:30.276Z,101270.59
2023-05-25T13:00:57.295Z,101259.59
2023-05-25T13:03:24.315Z,101275.97
2023-05-25T13:05:52.016Z,101266.03
2023-05-25T13:08:18.906Z,101269.75
2023-05-25T13:10:51.167Z,101269.88
2023-05-25T13:13:19.149Z,101275.09
2023-05-25T13:15:45.879Z,101269.25
2023-05-25T13:18:13.696Z,101267.47
2023-05-25T13:20:40.695Z,101263.38
2023-05-25T13:23:07.809Z,101262.53
2023-05-25T13:25:34.897Z,101266.88
2023-05-25T13:28:02.329Z,101259.00
2023-05-25T13:30:29.507Z,101255.44
2023-05-25T13:32:56.557Z,101253.09
2023-05-25T13:35:39.833Z,101261.63
2023-05-25T13:38:10.940Z,101253.50
2023-05-25T13:40:38.311Z,101265.94
2023-05-25T13:43:05.545Z,101263.66
2023-05-25T13:45:32.526Z,101253.81
2023-05-25T13:47:59.551Z,101260.94
2023-05-25T13:50:26.460Z,101252.44
2023-05-25T13:52:54.287Z,101253.13
2023-05-25T13:55:22.998Z,101249.84
2023-05-25T13:57:51.032Z,101246.97
2023-05-25T14:00:22.713Z,101247.63
2023-05-25T14:02:53.519Z,101246.50
2023-05-25T14:05:21.065Z,101241.19
2023-05-25T14:07:48.285Z,101240.31
2023-05-25T14:10:15.685Z,101236.28
2023-05-25T14:12:42.592Z,101241.19
2023-05-25T14:15:10.424Z,101232.47
2023-05-25T14:17:37.982Z,101234.63
2023-05-25T14:20:05.877Z,101230.81
2023-05-25T14:22:32.932Z,101228.09
2023-05-25T14:25:01.127Z,101233.59
2023-05-25T14:27:29.515Z,101227.19
2023-05-25T14:29:56.398Z,101227.13
2023-05-25T14:32:23.393Z,101225.19
2023-05-25T14:34:50.298Z,101220.88
2023-05-25T14:37:17.317Z,101218.59
2023-05-25T14:39:44.288Z,101220.19
2023-05-25T14:42:11.412Z,101210.47
2023-05-25T14:44:38.556Z,101212.03
2023-05-25T14:47:05.917Z,101213.06
2023-05-25T14:49:33.008Z,101221.50
2023-05-25T14:52:00.405Z,101217.41
2023-05-25T14:54:29.891Z,101215.38
2023-05-25T14:56:57.028Z,101215.97
2023-05-25T14:59:24.200Z,101217.53
2023-05-25T15:01:51.702Z,101219.06
2023-05-25T15:04:19.027Z,101219.00
2023-05-25T15:06:46.044Z,101211.84
2023-05-25T15:09:14.510Z,101217.09
2023-05-25T15:11:41.621Z,101212.06
2023-05-25T15:14:08.521Z,101207.00
2023-05-25T15:16:35.718Z,101207.09
2023-05-25T15:19:03.020Z,101210.84
2023-05-25T15:21:29.969Z,101210.56
2023-05-25T15:23:57.658Z,101213.53
2023-05-25T15:26:26.907Z,101212.63
2023-05-25T15:28:53.869Z,101205.75
2023-05-25T15:31:21.242Z,101207.00
2023-05-25T15:33:58.139Z,101204.59
2023-05-25T15:36:26.111Z,101200.59
2023-05-25T15:38:53.130Z,101209.88
2023-05-25T15:41:20.682Z,101197.19
2023-05-25T15:44:01.050Z,101190.19
2023-05-25T15:46:28.930Z,101203.13
2023-05-25T15:48:56.281Z,101205.88
2023-05-25T15:51:23.344Z,101201.88
2023-05-25T15:53:50.262Z,101205.06
2023-05-25T15:56:17.670Z,101206.94
2023-05-25T15:58:48.941Z,101200.06
2023-05-25T16:01:17.220Z,101200.53
2023-05-25T16:03:46.643Z,101200.75
2023-05-25T16:06:13.668Z,101205.56
2023-05-25T16:08:40.470Z,101201.97
2023-05-25T16:11:10.744Z,101199.91
2023-05-25T16:13:37.977Z,101201.19
2023-05-25T16:16:05.334Z,101194.53
2023-05-25T16:18:32.788Z,101195.34
2023-05-25T16:20:59.578Z,101196.38
2023-05-25T16:23:26.872Z,101196.25
2023-05-25T16:25:53.930Z,101194.06
2023-05-25T16:28:20.858Z,101201.81
2023-05-25T16:30:47.812Z,101198.38
2023-05-25T16:33:14.845Z,101193.13
2023-05-25T16:35:42.109Z,101201.38
2023-05-25T16:38:09.209Z,101192.53
2023-05-25T16:40:37.102Z,101197.81
2023-05-25T16:43:04.496Z,101189.78
2023-05-25T16:45:31.249Z,101197.28
2023-05-25T16:47:58.096Z,101194.59
2023-05-25T16:50:24.995Z,101198.34
2023-05-25T16:52:51.914Z,101196.97
2023-05-25T16:55:18.829Z,101204.59
2023-05-25T16:57:45.726Z,101195.91
2023-05-25T17:00:13.189Z,101196.94
2023-05-25T17:02:42.756Z,101201.34
2023-05-25T17:05:10.379Z,101197.84
2023-05-25T17:07:37.944Z,101195.19
2023-05-25T17:10:07.065Z,101206.03
2023-05-25T17:12:34.407Z,101203.06
2023-05-25T17:15:01.196Z,101204.22
2023-05-25T17:17:28.358Z,101212.94
2023-05-25T17:19:55.299Z,101202.16
2023-05-25T17:22:23.705Z,101209.59
2023-05-25T17:24:50.653Z,101207.06
2023-05-25T17:27:17.511Z,101201.28
2023-05-25T17:29:45.115Z,101209.66
2023-05-25T17:32:12.134Z,101209.81
2023-05-25T17:34:38.998Z,101208.38
2023-05-25T17:37:06.150Z,101204.88
2023-05-25T17:39:33.051Z,101215.50
2023-05-25T17:41:59.921Z,101220.00
2023-05-25T17:44:27.037Z,101220.16
2023-05-25T17:46:53.917Z,101217.91
2023-05-25T17:49:20.947Z,101227.22
2023-05-25T17:51:47.758Z,101223.06
2023-05-25T17:54:18.397Z,101226.75
2023-05-25T17:56:48.999Z,101225.47
2023-05-25T17:59:16.028Z,101231.09
2023-05-25T18:01:42.745Z,101226.75
2023-05-25T18:04:09.950Z,101231.25
2023-05-25T18:06:37.387Z,101230.28
2023-05-25T18:09:04.374Z,101228.78
2023-05-25T18:11:33.701Z,101227.31
2023-05-25T18:14:00.848Z,101235.69
2023-05-25T18:16:27.733Z,101243.81
2023-05-25T18:18:54.554Z,101246.72
2023-05-25T18:21:21.541Z,101243.31
2023-05-25T18:23:48.788Z,101246.81
2023-05-25T18:26:15.784Z,101242.13
2023-05-25T18:28:42.879Z,101241.47
2023-05-25T18:31:09.899Z,101249.16
2023-05-25T18:33:36.828Z,101249.63
2023-05-25T18:36:03.670Z,101248.63
2023-05-25T18:38:32.967Z,101247.72
2023-05-25T18:40:59.974Z,101249.81
2023-05-25T18:43:27.022Z,101250.13
2023-05-25T18:45:57.479Z,101252.34
2023-05-25T18:48:24.442Z,101255.19
2023-05-25T18:50:52.488Z,101260.78
2023-05-25T18:53:19.529Z,101265.25
2023-05-25T18:55:46.854Z,101263.56
2023-05-25T18:58:13.861Z,101260.19
2023-05-25T19:00:41.095Z,101271.53
2023-05-25T19:03:08.122Z,101268.91
2023-05-25T19:05:35.072Z,101273.66
2023-05-25T19:08:02.057Z,101260.66
2023-05-25T19:10:29.310Z,101270.56
2023-05-25T19:12:56.684Z,101278.38
2023-05-25T19:15:23.598Z,101282.88
2023-05-25T19:17:51.882Z,101278.66
2023-05-25T19:20:18.731Z,101283.09
2023-05-25T19:22:46.550Z,101289.78
2023-05-25T19:25:13.934Z,101294.22
2023-05-25T19:27:41.586Z,101296.56
2023-05-25T19:30:08.906Z,101303.22
2023-05-25T19:32:36.159Z,101307.16
2023-05-25T19:35:03.069Z,101309.16
2023-05-25T19:37:29.960Z,101309.56
2023-05-25T19:39:58.245Z,101320.06
2023-05-25T19:42:25.280Z,101315.81
2023-05-25T19:44:52.558Z,101318.63
2023-05-25T19:47:19.587Z,101321.97
2023-05-25T19:49:48.130Z,101326.97
2023-05-25T19:52:17.850Z,101324.31
2023-05-25T19:54:44.977Z,101329.03
2023-05-25T19:57:12.187Z,101324.50
2023-05-25T19:59:39.323Z,101327.84
2023-05-25T20:02:06.895Z,101330.63
2023-05-25T20:04:34.429Z,101333.44
2023-05-25T20:07:01.394Z,101334.63
2023-05-25T20:09:31.053Z,101334.22
2023-05-25T20:11:59.224Z,101333.19
2023-05-25T20:14:26.459Z,101341.41
2023-05-25T20:16:56.056Z,101348.53
2023-05-25T20:19:37.011Z,101358.91
2023-05-25T20:22:06.192Z,101349.81
2023-05-25T20:24:33.757Z,101356.44
2023-05-25T20:27:01.742Z,101351.56
2023-05-25T20:29:28.793Z,101360.56
2023-05-25T20:31:55.950Z,101354.09
2023-05-25T20:34:23.419Z,101356.09
2023-05-25T20:36:50.257Z,101360.50
2023-05-25T20:39:17.232Z,101353.22
2023-05-25T20:41:44.419Z,101355.41
2023-05-25T20:44:12.162Z,101359.84
2023-05-25T20:46:39.170Z,101366.63
2023-05-25T20:49:06.865Z,101362.31
2023-05-25T20:51:33.834Z,101366.19
2023-05-25T20:54:00.901Z,101369.47
2023-05-25T20:56:27.880Z,101365.72
2023-05-25T20:58:54.747Z,101373.44
2023-05-25T21:01:21.835Z,101376.22
2023-05-25T21:03:48.827Z,101381.16
2023-05-25T21:06:16.265Z,101373.38
2023-05-25T21:08:45.280Z,101381.59
2023-05-25T21:11:12.363Z,101380.31
2023-05-25T21:13:39.359Z,101386.03
2023-05-25T21:16:07.347Z,101387.97
2023-05-25T21:18:34.152Z,101390.19
2023-05-25T21:21:01.784Z,101388.56
2023-05-25T21:23:28.793Z,101392.09
2023-05-25T21:25:56.052Z,101393.75
2023-05-25T21:28:23.756Z,101397.34
2023-05-25T21:30:52.134Z,101397.38
2023-05-25T21:33:18.951Z,101402.59
2023-05-25T21:35:46.205Z,101398.06
2023-05-25T21:38:14.662Z,101402.47
2023-05-25T21:40:41.513Z,101399.22
2023-05-25T21:43:09.586Z,101406.81
2023-05-25T21:45:36.332Z,101396.53
2023-05-25T21:48:04.340Z,101408.22
2023-05-25T21:50:31.564Z,101412.88
2023-05-25T21:52:58.821Z,101409.63
2023-05-25T21:55:25.628Z,101411.28
2023-05-25T21:57:52.300Z,101408.34
2023-05-25T22:00:19.246Z,101411.34
2023-05-25T22:02:46.064Z,101407.56
2023-05-25T22:05:13.086Z,101411.44
2023-05-25T22:07:39.856Z,101418.47
2023-05-25T22:10:07.752Z,101409.81
2023-05-25T22:12:34.707Z,101413.59
2023-05-25T22:15:01.936Z,101418.53
2023-05-25T22:17:30.850Z,101421.53
2023-05-25T22:22:46.225Z,101417.50
2023-05-25T22:25:16.953Z,101422.66
2023-05-25T22:27:45.028Z,101426.47
2023-05-25T22:30:12.356Z,101425.13
2023-05-25T22:32:39.298Z,101429.22
2023-05-25T22:35:06.900Z,101431.13
2023-05-25T22:37:33.620Z,101437.06
2023-05-25T22:40:00.774Z,101436.00
2023-05-25T22:42:27.694Z,101440.34
2023-05-25T22:44:54.528Z,101434.66
2023-05-25T22:47:21.261Z,101436.31
2023-05-25T22:49:48.133Z,101441.75
2023-05-25T22:52:15.320Z,101441.47
2023-05-25T22:54:42.146Z,101449.63
2023-05-25T22:57:09.921Z,101453.16
2023-05-25T22:59:37.954Z,101467.25
2023-05-25T23:02:06.405Z,101457.25
2023-05-25T23:04:35.915Z,101462.66
2023-05-25T23:07:02.879Z,101461.25
2023-05-25T23:09:29.610Z,101453.94
2023-05-25T23:11:56.490Z,101464.25
2023-05-25T23:14:23.340Z,101457.19
2023-05-25T23:16:50.162Z,101464.53
2023-05-25T23:19:18.108Z,101469.66
2023-05-25T23:21:45.022Z,101463.16
2023-05-25T23:24:11.920Z,101472.38
2023-05-25T23:26:38.814Z,101471.28
2023-05-25T23:29:05.708Z,101470.19
2023-05-25T23:31:32.667Z,101474.53
2023-05-25T23:34:00.061Z,101473.44
2023-05-25T23:36:28.325Z,101479.09
2023-05-25T23:38:55.836Z,101480.44
2023-05-25T23:41:23.573Z,101478.53
2023-05-25T23:43:50.464Z,101485.28
2023-05-25T23:46:17.571Z,101488.00
2023-05-25T23:48:45.304Z,101490.66
2023-05-25T23:51:12.294Z,101487.97
2023-05-25T23:53:39.276Z,101483.63
2023-05-25T23:56:07.919Z,101482.53
2023-05-25T23:58:37.309Z,101496.53
